Decoded Metar for LFOT (TOURS in FRANCE) (IATA:TUF) | Meteo·Mobile Aviation Weather
aviador You're here:

LFOT Decoded Metar

TOURS in FRANCE
Report Time2018-12-16 17:30:00
UTC Time2018-12-16 17:58:16
Flight Rules vfr VFR
Wind170° at 08 kt
W.Decomp.*RWY 20: 6.9 kt HW 4 kt LCW
W.Rank170° ranks 22
Current wind is above 170° avg. (6.6)
Visibility9999 m
Phenomena:Shower Rain
Clouds:Broken 008 Hf
Few 017 Hf
Scattered 041 Hf
Broken 048 Hf
Ceiling4,800 ft
Temp08°C (ISA -6)
Dew Point08°C (100% RH)
AAT4.7°C
QNH1011 hPa
Density Alt-187 ft
Elevation354 ft
Report Wrong Elevation
Raw Report
METAR LFOT 161730Z AUTO 17008KT 9999 FEW017 SCT041 BKN048 08/08 Q1011
TEMPO 4000 SHRA BKN008 BKN020CB=

Extra information for LFOT:More info

Metar Taf Metar & Taf Last 4 Metars F.Rules Stats Wind Profile Meteogram Temp Stats Airport Information Weather charts Add Link Nearby VenuesMetar ALERT Operation Metar Decoded Social comments